Time;durP1;ratioP1;P1;durP2;ratioP2;P2;SDS_P1;SDS_P2;PMS_P1;PMS_P2;Temp;Humidity;BMP_temperature;BMP_pressure;BME280_temperature;BME280_humidity;BME280_pressure;Samples;Min_cycle;Max_cycle;Signal;HPM_P1;HPM_P2
2022/12/22 03:25:56;;;;;;;19.42;12.82;;;;;;;13.44;49.63;100317.38;5124492;27;20052;-71
2022/12/22 03:28:26;;;;;;;21.05;12.13;;;;;;;13.47;49.82;100322.50;5092000;28;20044;-71
2022/12/22 03:30:57;;;;;;;21.25;12.80;;;;;;;13.48;49.88;100321.53;5091937;28;20165;-69
2022/12/22 03:33:30;;;;;;;17.88;11.98;;;;;;;13.49;49.84;100315.19;5092153;28;20105;-70
2022/12/22 03:35:59;;;;;;;22.02;13.02;;;;;;;13.49;49.57;100317.03;5091847;28;20036;-72
2022/12/22 03:38:28;;;;;;;19.65;12.05;;;;;;;13.45;49.82;100308.34;5091887;28;20051;-71
2022/12/22 03:40:56;;;;;;;21.48;12.55;;;;;;;13.44;49.68;100307.50;5091878;28;20044;-71
2022/12/22 03:49:11;;;;;;;21.10;13.10;;;;;;;13.37;49.74;100286.59;5091780;28;20472;-70
2022/12/22 03:51:42;;;;;;;21.42;13.13;;;;;;;13.37;49.73;100294.63;5091725;28;20064;-69
2022/12/22 03:54:12;;;;;;;20.95;12.98;;;;;;;13.33;49.80;100290.47;5091939;28;20047;-70
2022/12/22 03:56:41;;;;;;;18.70;12.55;;;;;;;13.31;49.89;100295.06;5090440;28;20052;-70
2022/12/22 03:59:09;;;;;;;24.40;12.75;;;;;;;13.26;49.80;100297.22;5091741;28;20073;-70
2022/12/22 04:01:39;;;;;;;22.48;13.75;;;;;;;13.25;49.81;100300.88;5091663;28;20489;-70
2022/12/22 04:04:10;;;;;;;21.75;12.73;;;;;;;13.23;49.61;100297.47;5091514;28;20048;-70
2022/12/22 04:06:39;;;;;;;21.08;12.65;;;;;;;13.20;49.73;100308.34;5091470;28;20048;-70
2022/12/22 04:09:07;;;;;;;18.65;11.98;;;;;;;13.16;49.60;100302.34;5091049;28;20040;-71
2022/12/22 04:14:21;;;;;;;21.27;13.15;;;;;;;13.11;49.47;100313.34;5091200;28;20047;-71
2022/12/22 04:16:56;;;;;;;21.70;12.77;;;;;;;13.08;49.49;100316.25;5090245;28;20079;-71
2022/12/22 04:19:26;;;;;;;18.25;11.93;;;;;;;13.02;49.53;100308.63;5091634;28;20052;-71
2022/12/22 04:21:57;;;;;;;20.67;12.70;;;;;;;13.03;49.63;100321.09;5091474;28;20055;-71
2022/12/22 04:24:25;;;;;;;19.98;12.50;;;;;;;13.00;49.62;100313.25;5091388;28;20398;-71
2022/12/22 04:26:53;;;;;;;17.70;11.82;;;;;;;12.98;49.53;100309.81;5091449;28;20072;-71
2022/12/22 04:29:21;;;;;;;22.52;13.05;;;;;;;12.94;49.75;100311.00;5091467;28;20074;-71
2022/12/22 04:31:52;;;;;;;21.25;13.50;;;;;;;12.93;49.54;100322.66;5091406;28;20044;-71
2022/12/22 04:34:20;;;;;;;20.50;12.68;;;;;;;12.90;49.46;100314.84;5091386;28;20043;-71
2022/12/22 04:36:50;;;;;;;20.02;12.93;;;;;;;12.87;49.66;100317.75;5091363;28;20504;-72
2022/12/22 04:39:18;;;;;;;20.42;13.15;;;;;;;12.88;49.63;100314.09;5090067;28;20109;-72
2022/12/22 04:41:46;;;;;;;20.38;13.00;;;;;;;12.90;49.89;100312.19;5090010;28;20476;-71
2022/12/22 04:44:14;;;;;;;20.77;12.52;;;;;;;12.96;49.94;100314.44;5090051;28;20052;-73
2022/12/22 04:46:42;;;;;;;21.00;13.15;;;;;;;13.04;50.14;100312.09;5091400;28;20058;-71
2022/12/22 04:49:10;;;;;;;21.25;12.95;;;;;;;13.14;49.96;100315.00;5095003;28;20043;-71
2022/12/22 04:51:39;;;;;;;21.70;12.98;;;;;;;13.25;50.00;100308.91;5094770;28;20067;-73
2022/12/22 04:54:08;;;;;;;21.02;12.90;;;;;;;13.35;49.82;100296.59;5095004;28;20078;-71
2022/12/22 04:56:36;;;;;;;20.27;12.63;;;;;;;13.46;49.77;100299.34;5094708;28;20090;-71
2022/12/22 04:59:05;;;;;;;19.77;12.00;;;;;;;13.53;49.62;100300.63;5094917;28;20052;-71
2022/12/22 05:01:33;;;;;;;18.65;11.73;;;;;;;13.64;49.58;100287.31;5095131;28;20068;-72
2022/12/22 05:04:01;;;;;;;19.30;12.45;;;;;;;13.75;49.50;100292.75;5094783;28;20076;-71
2022/12/22 05:06:29;;;;;;;18.65;12.02;;;;;;;13.85;49.31;100300.13;5093330;28;20489;-71
2022/12/22 05:08:57;;;;;;;19.42;11.85;;;;;;;13.92;49.28;100296.88;5093217;28;20059;-71
2022/12/22 05:11:27;;;;;;;19.60;12.13;;;;;;;14.03;49.25;100291.59;5094084;28;20067;-71
2022/12/22 05:13:55;;;;;;;19.92;11.50;;;;;;;14.09;49.03;100290.28;5094285;28;20047;-71
2022/12/22 05:16:29;;;;;;;20.52;12.20;;;;;;;14.20;49.06;100293.03;5094073;28;20408;-71
2022/12/22 05:18:57;;;;;;;17.98;12.13;;;;;;;14.27;48.97;100288.88;5094443;28;20520;-72
2022/12/22 05:21:25;;;;;;;18.52;11.90;;;;;;;14.39;49.01;100297.00;5094404;28;20044;-71
2022/12/22 05:23:54;;;;;;;19.80;12.48;;;;;;;14.49;48.85;100295.38;5094205;28;20570;-71
2022/12/22 05:26:22;;;;;;;19.95;12.25;;;;;;;14.56;48.76;100293.91;5094202;28;20044;-71
2022/12/22 05:28:52;;;;;;;19.85;12.27;;;;;;;14.66;48.80;100297.59;5092055;28;20512;-71
2022/12/22 05:31:22;;;;;;;19.38;11.50;;;;;;;14.79;48.48;100298.41;5092314;28;20072;-71
2022/12/22 05:33:50;;;;;;;18.42;11.82;;;;;;;14.86;48.47;100294.28;5092806;28;20151;-71
2022/12/22 05:36:19;;;;;;;19.80;11.50;;;;;;;14.94;48.42;100304.41;5093917;28;20131;-71
2022/12/22 05:38:47;;;;;;;18.88;11.80;;;;;;;14.99;48.35;100296.84;5093946;28;20044;-70
2022/12/22 05:41:15;;;;;;;19.15;11.93;;;;;;;15.02;48.12;100295.75;5094014;28;20076;-71
2022/12/22 05:43:43;;;;;;;20.17;12.23;;;;;;;15.07;48.27;100296.25;5094010;28;20044;-72
2022/12/22 05:46:13;;;;;;;18.55;11.70;;;;;;;15.09;48.24;100283.56;5093833;28;20094;-72
2022/12/22 05:48:41;;;;;;;18.83;11.70;;;;;;;15.10;48.16;100286.13;5093619;28;20075;-72
2022/12/22 05:51:10;;;;;;;18.00;11.80;;;;;;;15.10;48.31;100283.44;5093757;28;20056;-72
2022/12/22 05:53:39;;;;;;;21.05;11.95;;;;;;;15.09;48.27;100288.94;5093686;28;20044;-72
2022/12/22 05:56:08;;;;;;;19.08;12.13;;;;;;;15.07;48.21;100272.09;5093393;28;20044;-73
2022/12/22 05:58:38;;;;;;;19.08;11.95;;;;;;;15.04;48.27;100275.00;5093550;28;20408;-72
2022/12/22 06:01:07;;;;;;;16.98;11.77;;;;;;;15.00;48.34;100285.13;5093490;28;20048;-72
2022/12/22 06:03:36;;;;;;;17.90;11.88;;;;;;;14.96;48.34;100281.00;5093492;28;20044;-73
2022/12/22 06:06:05;;;;;;;19.42;12.80;;;;;;;14.93;48.46;100289.25;5093370;28;20047;-73
2022/12/22 06:08:33;;;;;;;18.27;11.90;;;;;;;14.88;48.47;100289.63;5092118;28;20123;-73
2022/12/22 06:11:01;;;;;;;19.35;12.27;;;;;;;14.84;48.43;100290.81;5093363;28;20136;-72
2022/12/22 06:13:30;;;;;;;17.63;11.68;;;;;;;14.79;48.51;100309.16;5093515;28;20044;-72
2022/12/22 06:15:58;;;;;;;18.75;11.95;;;;;;;14.74;48.64;100295.19;5093133;28;20396;-71
2022/12/22 06:18:27;;;;;;;19.70;12.98;;;;;;;14.69;48.54;100292.03;5093072;28;20043;-72
2022/12/22 06:20:56;;;;;;;18.83;12.68;;;;;;;14.66;48.53;100291.38;5093204;28;20409;-73
2022/12/22 06:23:25;;;;;;;19.40;12.77;;;;;;;14.60;48.56;100298.09;5093101;28;20054;-71
2022/12/22 06:25:56;;;;;;;18.08;12.43;;;;;;;14.53;48.60;100311.13;5092971;28;20089;-73
2022/12/22 06:28:25;;;;;;;22.40;12.90;;;;;;;14.50;48.46;100307.81;5092797;28;20885;-71
2022/12/22 06:30:53;;;;;;;19.15;12.77;;;;;;;14.45;48.45;100315.34;5092996;28;20105;-73
2022/12/22 06:33:21;;;;;;;19.80;12.65;;;;;;;14.38;48.66;100314.06;5091543;28;20047;-72
2022/12/22 06:35:50;;;;;;;20.92;12.60;;;;;;;14.34;48.57;100308.06;5092973;28;20393;-72
2022/12/22 06:38:27;;;;;;;20.65;12.73;;;;;;;14.29;48.67;100311.13;5092855;28;20155;-72
2022/12/22 06:40:56;;;;;;;19.40;12.27;;;;;;;14.25;48.64;100314.97;5092709;28;20113;-73
2022/12/22 06:43:23;;;;;;;18.83;11.50;;;;;;;14.21;48.59;100318.03;5092802;28;20070;-72
2022/12/22 06:45:51;;;;;;;21.67;13.38;;;;;;;14.14;48.92;100306.88;5091378;28;20048;-72
2022/12/22 06:48:20;;;;;;;18.73;12.18;;;;;;;14.11;48.68;100307.13;5092658;28;20051;-72
2022/12/22 06:50:48;;;;;;;20.20;12.90;;;;;;;14.06;48.78;100305.72;5092556;28;20061;-72
2022/12/22 06:53:16;;;;;;;20.90;13.30;;;;;;;14.02;48.68;100322.06;5092655;28;20481;-72
2022/12/22 06:55:46;;;;;;;19.55;13.00;;;;;;;13.98;48.80;100315.19;5092095;28;20051;-72
2022/12/22 06:58:15;;;;;;;19.08;11.98;;;;;;;13.94;48.74;100326.25;5092322;28;20040;-72
2022/12/22 07:00:47;;;;;;;21.10;13.48;;;;;;;13.90;48.79;100324.78;5092156;28;20447;-72
2022/12/22 07:03:15;;;;;;;19.85;12.52;;;;;;;13.86;48.90;100323.28;5092309;28;20047;-71
2022/12/22 07:05:44;;;;;;;20.63;13.20;;;;;;;13.81;48.84;100329.00;5091003;28;20050;-71
2022/12/22 07:08:12;;;;;;;19.92;13.82;;;;;;;13.78;48.68;100322.97;5092229;28;20038;-71
2022/12/22 07:10:58;;;;;;;22.67;13.70;;;;;;;13.73;48.80;100310.78;5091925;28;20105;-71
2022/12/22 07:13:30;;;;;;;21.52;13.23;;;;;;;13.71;48.42;100318.06;5090846;28;20047;-71
2022/12/22 07:15:59;;;;;;;20.80;12.98;;;;;;;13.69;48.68;100308.41;5092266;28;20044;-71
2022/12/22 07:18:30;;;;;;;20.13;12.50;;;;;;;13.72;49.21;100314.41;5090905;28;20065;-74
2022/12/22 07:21:00;;;;;;;21.55;13.57;;;;;;;13.78;49.28;100306.88;5091994;28;20048;-72
2022/12/22 07:23:29;;;;;;;19.70;13.27;;;;;;;13.84;49.10;100310.00;5092158;28;20464;-72
2022/12/22 07:25:57;;;;;;;20.73;13.02;;;;;;;13.94;49.03;100310.19;5091928;28;20048;-72
2022/12/22 07:28:26;;;;;;;20.90;13.10;;;;;;;14.02;49.11;100314.00;5090730;28;20087;-72
2022/12/22 07:30:55;;;;;;;20.13;13.10;;;;;;;14.13;48.92;100315.03;5091964;28;20054;-72
2022/12/22 07:33:24;;;;;;;21.67;12.30;;;;;;;14.21;48.84;100312.66;5091950;28;20075;-72
2022/12/22 07:36:02;;;;;;;20.23;12.73;;;;;;;14.32;48.70;100326.13;5092010;28;20127;-72
2022/12/22 07:38:33;;;;;;;21.10;13.45;;;;;;;14.39;48.73;100315.78;5091838;28;20040;-72
2022/12/22 07:41:01;;;;;;;20.95;12.75;;;;;;;14.49;48.62;100316.84;5091814;28;20055;-72
2022/12/22 07:43:32;;;;;;;20.40;13.05;;;;;;;14.59;48.37;100315.19;5091926;28;20066;-72
2022/12/22 07:46:01;;;;;;;17.88;11.48;;;;;;;14.66;48.46;100319.09;5091779;28;20052;-72
2022/12/22 07:51:15;;;;;;;19.95;12.45;;;;;;;14.84;48.30;100323.06;5091648;28;20094;-72
2022/12/22 07:53:44;;;;;;;20.50;12.35;;;;;;;14.91;48.13;100338.72;5091821;28;20044;-72
2022/12/22 07:56:12;;;;;;;19.20;12.02;;;;;;;14.93;48.20;100334.91;5091574;28;20445;-70
2022/12/22 07:58:40;;;;;;;19.88;12.50;;;;;;;14.95;48.09;100335.66;5091705;28;20066;-70
2022/12/22 08:01:12;;;;;;;21.55;13.00;;;;;;;14.96;47.98;100333.81;5091717;28;20051;-72
2022/12/22 08:03:40;;;;;;;20.33;12.32;;;;;;;14.95;48.14;100329.44;5090050;28;20048;-72
2022/12/22 08:06:09;;;;;;;18.95;13.18;;;;;;;14.94;48.22;100327.72;5091684;28;20101;-72
2022/12/22 08:08:37;;;;;;;20.55;13.07;;;;;;;14.90;48.12;100321.75;5091206;28;20048;-72
2022/12/22 08:11:06;;;;;;;20.52;12.85;;;;;;;14.85;48.32;100322.06;5091587;28;20047;-72
2022/12/22 08:13:34;;;;;;;19.63;12.88;;;;;;;14.83;48.30;100325.88;5091935;28;20044;-72
2022/12/22 08:16:04;;;;;;;20.20;13.15;;;;;;;14.78;48.40;100326.22;5091709;28;20382;-72
2022/12/22 08:18:34;;;;;;;19.70;12.73;;;;;;;14.76;48.35;100330.84;5091717;28;20177;-72
2022/12/22 08:21:04;;;;;;;19.85;12.35;;;;;;;14.72;48.34;100329.38;5090208;28;20048;-72
2022/12/22 08:23:32;;;;;;;20.48;12.95;;;;;;;14.67;48.66;100334.25;5094622;28;20048;-72
2022/12/22 08:26:06;;;;;;;20.30;13.05;;;;;;;14.62;48.29;100328.34;5093716;28;20056;-71
2022/12/22 08:28:35;;;;;;;;;;;;;;;14.60;48.42;100325.78;5093081;28;20047;-72
2022/12/22 08:31:04;;;;;;;20.98;12.77;;;;;;;14.56;48.47;100326.97;5093456;28;19977;-71
2022/12/22 08:33:33;;;;;;;19.40;12.85;;;;;;;14.53;48.60;100329.06;5094879;28;20489;-71
2022/12/22 08:36:02;;;;;;;21.23;13.35;;;;;;;14.49;48.40;100323.06;5095015;28;20117;-71
2022/12/22 08:38:36;;;;;;;20.23;13.05;;;;;;;14.45;48.53;100315.34;5094223;28;20400;-72
2022/12/22 08:41:05;;;;;;;20.92;13.10;;;;;;;14.40;48.53;100312.13;5084837;28;20040;-72
2022/12/22 08:43:33;;;;;;;21.20;12.90;;;;;;;14.37;48.46;100312.34;5094686;28;20105;-72
2022/12/22 08:46:01;;;;;;;20.63;12.70;;;;;;;14.31;48.62;100317.22;5094547;28;20089;-72
2022/12/22 08:48:30;;;;;;;19.20;12.27;;;;;;;14.29;48.51;100329.91;5094180;28;20048;-72
2022/12/22 08:50:59;;;;;;;20.45;13.40;;;;;;;14.26;48.57;100327.41;5110798;28;20067;-72
2022/12/22 08:53:27;;;;;;;20.08;13.57;;;;;;;14.20;48.69;100333.25;5093550;28;20040;-71
2022/12/22 08:56:15;;;;;;;21.55;13.25;;;;;;;14.18;48.53;100323.59;5094016;28;20465;-72
2022/12/22 08:58:44;;;;;;;20.85;13.40;;;;;;;14.15;48.60;100321.16;5093281;28;20445;-71
2022/12/22 09:01:17;;;;;;;21.80;13.00;;;;;;;14.10;48.74;100324.19;5093312;28;20390;-71
2022/12/22 09:03:49;;;;;;;21.35;13.30;;;;;;;14.06;48.56;100314.63;5092937;28;20485;-69
2022/12/22 09:06:20;;;;;;;21.90;14.40;;;;;;;14.01;48.62;100317.66;5094678;28;20043;-71
2022/12/22 09:08:55;;;;;;;24.15;15.43;;;;;;;13.97;48.25;100309.94;5095517;28;20048;-72
2022/12/22 09:11:25;;;;;;;21.95;14.27;;;;;;;13.94;48.50;100305.66;5094331;28;20036;-73
2022/12/22 09:13:56;;;;;;;22.48;14.88;;;;;;;13.91;48.49;100310.41;5094189;28;20382;-73
2022/12/22 09:16:26;;;;;;;23.90;15.02;;;;;;;13.88;48.32;100305.25;5094557;28;20047;-71
2022/12/22 09:18:55;;;;;;;21.75;13.48;;;;;;;13.83;48.61;100296.69;5092862;28;20052;-73
2022/12/22 09:21:25;;;;;;;23.23;15.52;;;;;;;13.79;48.45;100295.19;5094288;28;20082;-72
2022/12/22 09:23:55;;;;;;;22.73;14.77;;;;;;;13.77;48.49;100298.00;5095378;28;20083;-73
2022/12/22 09:26:25;;;;;;;23.40;15.02;;;;;;;13.75;49.02;100284.69;5094398;28;20043;-72
2022/12/22 09:28:53;;;;;;;26.13;15.10;;;;;;;13.84;51.66;100290.38;5094128;28;20052;-72
2022/12/22 09:31:23;;;;;;;27.45;15.85;;;;;;;13.91;53.17;100276.41;5092369;28;20055;-73
2022/12/22 09:33:52;;;;;;;27.33;15.27;;;;;;;13.99;53.41;100276.69;5093625;28;20075;-73
2022/12/22 09:36:22;;;;;;;25.85;15.43;;;;;;;13.99;52.50;100275.81;5127070;27;20048;-73
2022/12/22 09:38:51;;;;;;;30.23;15.80;;;;;;;13.94;52.21;100265.44;5092316;28;20047;-73
2022/12/22 09:41:31;;;;;;;27.75;15.68;;;;;;;13.90;51.89;100277.38;5093684;28;20550;-73
2022/12/22 09:44:03;;;;;;;30.05;16.02;;;;;;;13.87;51.34;100280.25;5092035;28;20040;-73
2022/12/22 09:46:34;;;;;;;28.52;16.35;;;;;;;13.81;51.12;100278.06;5093357;28;20040;-73
2022/12/22 09:49:05;;;;;;;28.65;16.85;;;;;;;13.78;50.87;100275.56;5093595;28;20032;-72
2022/12/22 09:51:39;;;;;;;29.13;17.58;;;;;;;13.73;50.98;100270.56;5091708;28;20059;-74
2022/12/22 09:54:12;;;;;;;25.85;16.38;;;;;;;13.70;50.92;100276.16;5091916;28;20071;-71
2022/12/22 09:56:40;;;;;;;26.05;16.48;;;;;;;13.67;50.84;100278.19;5093292;28;20381;-74
2022/12/22 09:59:11;;;;;;;29.23;16.60;;;;;;;13.64;50.64;100271.22;5092542;28;20036;-75
2022/12/22 10:02:02;;;;;;;29.00;16.73;;;;;;;13.60;50.75;100259.00;5092046;28;20067;-73
2022/12/22 10:04:49;;;;;;;28.05;16.45;;;;;;;13.62;50.89;100266.97;5077590;28;20056;-74
2022/12/22 10:07:25;;;;;;;27.75;15.45;;;;;;;13.65;51.41;100261.34;5092011;28;20421;-75
2022/12/22 10:09:54;;;;;;;30.00;15.60;;;;;;;13.67;52.15;100267.47;5091840;28;20048;-73
2022/12/22 10:12:25;;;;;;;25.88;16.02;;;;;;;13.68;53.03;100272.69;5091949;28;20047;-70
2022/12/22 10:14:54;;;;;;;29.10;15.50;;;;;;;13.71;53.94;100266.28;5093078;28;20078;-70
2022/12/22 10:17:27;;;;;;;27.23;15.23;;;;;;;13.74;54.54;100256.19;5072798;28;20436;-74
2022/12/22 10:20:19;;;;;;;26.77;15.32;;;;;;;13.76;54.55;100248.03;5070647;28;20512;-74
2022/12/22 10:22:49;;;;;;;26.95;15.27;;;;;;;13.79;55.05;100246.94;5071936;28;20048;-73
2022/12/22 10:25:29;;;;;;;30.23;15.88;;;;;;;13.79;55.09;100236.22;5105200;28;20053;-74
2022/12/22 10:28:21;;;;;;;30.48;15.80;;;;;;;13.83;55.30;100245.75;5072647;28;20557;-74
2022/12/22 10:30:50;;;;;;;34.63;16.53;;;;;;;13.82;55.19;100246.72;5071259;28;20049;-74
2022/12/22 10:33:19;;;;;;;27.02;15.45;;;;;;;13.85;55.26;100242.00;5072706;28;20052;-74
2022/12/22 10:35:51;;;;;;;28.60;16.65;;;;;;;13.87;55.31;100240.03;5072999;28;20040;-73
2022/12/22 10:38:24;;;;;;;27.63;15.85;;;;;;;13.85;55.57;100230.41;5072551;28;20123;-73
2022/12/22 10:40:57;;;;;;;26.65;15.45;;;;;;;13.89;55.51;100224.69;5072504;28;20048;-74
2022/12/22 10:43:32;;;;;;;26.33;15.32;;;;;;;13.89;55.42;100219.31;5071133;28;20057;-74
2022/12/22 10:46:03;;;;;;;28.05;15.88;;;;;;;13.91;55.76;100224.59;5071590;28;20048;-74
2022/12/22 10:48:33;;;;;;;28.08;16.88;;;;;;;13.93;55.59;100222.66;5072178;28;20115;-75
2022/12/22 10:51:04;;;;;;;29.13;16.55;;;;;;;13.94;55.59;100214.50;5072113;28;20059;-75
2022/12/22 10:53:47;;;;;;;30.48;16.20;;;;;;;13.95;55.62;100189.38;5088877;28;20046;-77
2022/12/22 10:56:23;;;;;;;42.72;17.80;;;;;;;13.99;55.25;100192.69;5092470;28;20152;-76
2022/12/22 10:58:53;;;;;;;36.83;17.27;;;;;;;13.98;54.76;100193.66;5092316;28;20067;-76
2022/12/22 11:01:27;;;;;;;29.27;16.88;;;;;;;13.96;54.29;100217.06;5094085;28;20119;-75
2022/12/22 11:03:56;;;;;;;30.65;17.23;;;;;;;13.98;53.87;100215.09;5092474;28;20118;-76
2022/12/22 11:06:24;;;;;;;37.03;19.27;;;;;;;13.99;53.28;100206.09;5091142;28;20079;-74
2022/12/22 11:08:53;;;;;;;33.10;18.55;;;;;;;14.01;53.62;100199.66;5092068;28;20040;-75
2022/12/22 11:11:46;;;;;;;31.58;18.27;;;;;;;14.05;54.41;100205.63;5092291;28;20564;-74
2022/12/22 11:14:26;;;;;;;45.65;19.08;;;;;;;14.10;54.83;100210.69;5092248;28;20051;-74
2022/12/22 11:17:02;;;;;;;34.95;18.95;;;;;;;14.13;55.31;100210.44;5090750;28;20485;-74
2022/12/22 11:19:47;;;;;;;34.65;18.83;;;;;;;14.17;55.76;100204.72;5090723;28;20047;-74
2022/12/22 11:22:29;;;;;;;34.63;18.70;;;;;;;14.22;56.05;100191.81;5090861;28;20097;-74
2022/12/22 11:25:14;;;;;;;32.75;17.90;;;;;;;14.27;55.72;100192.31;5092036;28;20051;-73
2022/12/22 11:27:55;;;;;;;38.17;19.23;;;;;;;14.29;55.09;100195.75;5091915;28;20036;-73
2022/12/22 11:30:31;;;;;;;35.53;17.88;;;;;;;14.28;54.55;100193.16;5091855;28;20109;-69
2022/12/22 11:33:15;;;;;;;40.97;19.67;;;;;;;14.28;54.10;100186.00;5091808;28;20044;-71
2022/12/22 11:35:57;;;;;;;38.58;18.40;;;;;;;14.24;53.97;100189.88;5088472;28;20044;-70
2022/12/22 11:38:44;;;;;;;30.92;17.60;;;;;;;14.22;53.80;100183.75;5090353;28;20044;-73
2022/12/22 11:41:27;;;;;;;31.92;18.30;;;;;;;14.17;53.27;100172.50;5090332;28;20120;-72
2022/12/22 11:44:13;;;;;;;34.33;17.88;;;;;;;14.16;52.56;100202.16;5091745;28;20039;-74
2022/12/22 11:46:49;;;;;;;32.78;18.92;;;;;;;14.13;52.43;100197.88;5091783;28;20093;-74
2022/12/22 11:49:52;;;;;;;31.75;17.58;;;;;;;14.09;52.11;100199.09;5091637;28;20474;-74
2022/12/22 11:52:34;;;;;;;31.15;17.38;;;;;;;14.06;52.09;100201.97;5075996;28;20060;-74
2022/12/22 11:55:20;;;;;;;31.80;17.52;;;;;;;14.03;52.27;100204.91;5090334;28;20067;-74
2022/12/22 11:58:01;;;;;;;34.25;18.58;;;;;;;14.00;52.36;100194.41;5095549;28;20051;-74
2022/12/22 12:00:34;;;;;;;30.08;17.77;;;;;;;13.95;52.24;100183.16;5095782;28;20114;-74
2022/12/22 12:03:49;;;;;;;29.80;16.98;;;;;;;13.94;51.98;100186.81;5095870;28;20135;-74
2022/12/22 12:06:28;;;;;;;33.65;19.17;;;;;;;13.90;51.81;100180.84;5094418;28;20155;-74
2022/12/22 12:09:11;;;;;;;33.97;19.17;;;;;;;13.90;51.80;100196.09;5094274;28;20097;-74
2022/12/22 12:11:46;;;;;;;31.60;18.85;;;;;;;13.87;51.74;100180.19;5095710;28;20055;-74
2022/12/22 12:14:24;;;;;;;32.83;18.77;;;;;;;13.83;51.96;100189.47;5094390;28;20040;-74
2022/12/22 12:16:58;;;;;;;30.73;17.90;;;;;;;13.81;52.06;100186.91;5094141;28;20048;-73
2022/12/22 12:19:51;;;;;;;33.35;18.23;;;;;;;13.78;52.04;100187.09;5095467;28;20071;-74
2022/12/22 12:22:32;;;;;;;31.23;18.60;;;;;;;13.75;52.18;100182.84;5093982;28;20066;-73
2022/12/22 12:25:01;;;;;;;29.40;18.23;;;;;;;13.71;52.10;100173.31;5094086;28;20048;-73
2022/12/22 12:27:49;;;;;;;31.88;18.42;;;;;;;13.70;52.28;100166.25;5093918;28;20443;-73
2022/12/22 12:30:19;;;;;;;31.17;17.90;;;;;;;13.65;52.31;100160.38;5095044;28;20105;-73
2022/12/22 12:33:15;;;;;;;33.70;19.38;;;;;;;13.63;52.43;100173.03;5093915;28;20044;-73
2022/12/22 12:35:55;;;;;;;32.22;18.65;;;;;;;13.60;52.43;100193.81;5095157;28;20270;-73
2022/12/22 12:38:31;;;;;;;32.38;17.17;;;;;;;13.58;52.49;100207.34;5094944;28;20079;-73
2022/12/22 12:41:28;;;;;;;30.35;18.42;;;;;;;13.56;52.57;100228.03;5093675;28;20050;-74
2022/12/22 12:43:57;;;;;;;29.38;17.88;;;;;;;13.51;52.40;100216.81;5095014;28;20052;-73
2022/12/22 12:46:52;;;;;;;30.00;17.65;;;;;;;13.51;52.53;100216.81;5094947;28;20052;-73
2022/12/22 12:49:57;;;;;;;31.90;18.13;;;;;;;13.48;52.58;100211.66;5094669;28;20590;-74
2022/12/22 12:53:11;;;;;;;32.55;17.60;;;;;;;13.45;52.58;100217.25;5094890;28;20044;-74
2022/12/22 12:55:59;;;;;;;27.98;17.15;;;;;;;13.42;52.43;100217.47;5094826;28;20123;-72
2022/12/22 12:58:54;;;;;;;28.58;17.73;;;;;;;13.41;52.62;100215.75;5094633;28;20050;-73
2022/12/22 13:01:56;;;;;;;31.83;18.05;;;;;;;13.35;52.49;100200.13;5094489;28;20047;-73
2022/12/22 13:05:01;;;;;;;30.17;17.75;;;;;;;13.36;52.60;100204.53;5093219;28;20063;-73
2022/12/22 13:08:08;;;;;;;28.30;16.83;;;;;;;13.32;52.59;100200.38;5093998;28;20044;-73
2022/12/22 13:10:40;;;;;;;31.02;18.13;;;;;;;13.29;52.85;100201.41;5093054;28;20076;-73
2022/12/22 13:13:11;;;;;;;28.73;17.70;;;;;;;13.28;52.49;100202.38;5093280;28;20054;-73
2022/12/22 13:15:43;;;;;;;31.42;17.95;;;;;;;13.26;52.52;100190.94;5093184;28;20052;-72
2022/12/22 13:18:39;;;;;;;28.10;18.27;;;;;;;13.23;52.53;100193.84;5094266;28;20048;-73
2022/12/22 13:21:24;;;;;;;30.73;17.38;;;;;;;13.22;52.52;100177.88;5094325;28;20040;-73
2022/12/22 13:24:19;;;;;;;30.15;18.15;;;;;;;13.20;52.61;100147.66;5092776;28;20470;-72
2022/12/22 13:26:55;;;;;;;30.35;17.20;;;;;;;13.16;52.54;100147.88;5094084;28;20127;-73
2022/12/22 13:29:28;;;;;;;30.02;18.05;;;;;;;13.14;52.54;100165.03;5092813;28;20051;-73
2022/12/22 13:32:01;;;;;;;28.67;17.92;;;;;;;13.15;52.52;100158.69;5094166;28;20052;-73
2022/12/22 13:34:39;;;;;;;30.00;17.98;;;;;;;13.13;52.63;100168.66;5094019;28;20058;-73
2022/12/22 13:37:29;;;;;;;29.33;17.35;;;;;;;13.11;52.36;100143.78;5093811;28;20508;-73
2022/12/22 13:40:11;;;;;;;30.98;18.75;;;;;;;13.08;52.53;100144.88;5094419;28;20060;-73
2022/12/22 13:42:42;;;;;;;24.80;16.45;;;;;;;13.06;52.43;100109.34;5094519;28;20044;-73
2022/12/22 13:45:25;;;;;;;31.25;19.00;;;;;;;13.04;52.60;100105.91;5093817;28;20044;-73
2022/12/22 13:47:54;;;;;;;31.25;18.58;;;;;;;13.03;52.45;100147.06;5092564;28;20054;-74
2022/12/22 13:50:26;;;;;;;31.58;18.33;;;;;;;13.01;52.53;100103.44;5093605;28;20088;-73
2022/12/22 13:52:57;;;;;;;29.92;18.50;;;;;;;12.99;52.38;100124.13;5093555;28;20113;-73
2022/12/22 13:55:28;;;;;;;29.60;18.10;;;;;;;12.96;52.19;100124.34;5092305;28;20048;-74
2022/12/22 13:58:03;;;;;;;29.08;17.25;;;;;;;12.95;52.49;100111.09;5093423;28;20123;-73
2022/12/22 14:00:31;;;;;;;31.77;18.27;;;;;;;12.94;52.36;100142.34;5092121;28;20048;-73
2022/12/22 14:03:00;;;;;;;30.02;18.02;;;;;;;12.92;52.57;100096.06;5093471;28;20044;-73
2022/12/22 14:05:33;;;;;;;26.23;17.40;;;;;;;12.90;52.32;100087.31;5093324;28;20048;-73
2022/12/22 14:08:04;;;;;;;29.73;18.13;;;;;;;12.88;52.34;100106.16;5092006;28;20130;-73
2022/12/22 14:10:35;;;;;;;33.00;18.55;;;;;;;12.87;52.33;100107.13;5091885;28;20048;-73
2022/12/22 14:13:07;;;;;;;30.95;17.88;;;;;;;12.86;52.36;100128.66;5093301;28;20044;-73
2022/12/22 14:15:36;;;;;;;31.15;18.60;;;;;;;12.82;52.45;100137.84;5093213;28;20070;-73
2022/12/22 14:18:04;;;;;;;28.90;18.33;;;;;;;12.81;52.55;100128.97;5091672;28;20044;-73
2022/12/22 14:20:35;;;;;;;31.55;18.42;;;;;;;12.79;52.34;100100.59;5092016;28;20534;-74
2022/12/22 14:23:08;;;;;;;30.67;17.80;;;;;;;12.79;52.32;100119.34;5092899;28;20076;-73
2022/12/22 14:25:39;;;;;;;31.55;18.25;;;;;;;12.77;52.38;100105.22;5091756;28;20040;-74
2022/12/22 14:28:15;;;;;;;31.13;18.83;;;;;;;12.74;52.39;100118.81;5092984;28;20083;-75
2022/12/22 14:30:46;;;;;;;31.30;18.77;;;;;;;12.72;52.53;100124.28;5091586;28;20556;-74
2022/12/22 14:33:17;;;;;;;31.92;18.75;;;;;;;12.70;52.26;100112.81;5091552;28;20098;-73
2022/12/22 14:35:45;;;;;;;29.13;18.13;;;;;;;12.72;51.63;100131.44;5092782;28;20078;-74
2022/12/22 14:38:22;;;;;;;37.72;22.17;;;;;;;12.74;51.31;100133.06;5092964;28;20135;-73
2022/12/22 14:40:51;;;;;;;29.73;18.08;;;;;;;12.82;52.33;100138.69;5092697;28;20101;-73
2022/12/22 14:43:28;;;;;;;32.15;18.95;;;;;;;12.92;52.49;100162.16;5091314;28;20060;-74
2022/12/22 14:46:06;;;;;;;30.60;17.93;;;;;;;13.01;52.38;100157.00;5092590;28;20048;-73
2022/12/22 14:48:38;;;;;;;29.95;18.52;;;;;;;13.10;52.30;100164.38;5092930;28;20309;-73
2022/12/22 14:51:07;;;;;;;33.08;19.02;;;;;;;13.23;52.39;100151.00;5092519;28;20056;-74
2022/12/22 14:53:44;;;;;;;32.58;18.75;;;;;;;13.35;52.16;100151.91;5091362;28;20068;-71
2022/12/22 14:56:13;;;;;;;29.50;19.33;;;;;;;13.44;51.99;100149.41;5090496;28;20051;-71
2022/12/22 14:58:43;;;;;;;30.13;17.77;;;;;;;13.55;52.03;100143.25;5090023;28;20461;-72
2022/12/22 15:01:14;;;;;;;32.70;19.33;;;;;;;13.69;52.69;100129.66;5092064;28;20052;-73
2022/12/22 15:03:43;;;;;;;33.75;18.27;;;;;;;13.88;53.35;100128.28;5090749;28;20040;-73
2022/12/22 15:06:34;;;;;;;29.92;17.70;;;;;;;14.05;53.19;100111.78;5090610;28;20055;-78
2022/12/22 15:09:28;;;;;;;32.03;19.17;;;;;;;14.20;52.84;100105.25;5085420;28;20071;-74
2022/12/22 15:12:18;;;;;;;33.67;18.67;;;;;;;14.30;52.88;100108.06;5090942;28;20052;-74
2022/12/22 15:14:47;;;;;;;34.45;19.67;;;;;;;14.33;52.93;100108.66;5092224;28;20127;-73